Time;durP1;ratioP1;P1;durP2;ratioP2;P2;SDS_P1;SDS_P2;PMS_P1;PMS_P2;Temp;Humidity;BMP_temperature;BMP_pressure;BME280_temperature;BME280_humidity;BME280_pressure;Samples;Min_cycle;Max_cycle;Signal;HPM_P1;HPM_P2
2024/01/09 00:02:50;;;;;;;1.40;0.63;;;;;;;17.18;50.25;103209.47;10538804;28;20016;-57
2024/01/09 00:07:51;;;;;;;1.47;0.70;;;;;;;17.23;49.85;103201.56;10538126;28;20282;-57
2024/01/09 00:12:51;;;;;;;2.00;1.02;;;;;;;17.20;50.96;103202.03;10537116;28;20334;-57
2024/01/09 00:17:51;;;;;;;1.50;0.77;;;;;;;17.23;50.98;103206.94;10538302;28;20035;-58
2024/01/09 00:22:52;;;;;;;1.63;0.82;;;;;;;17.23;49.73;103205.06;10538362;28;21013;-57
2024/01/09 00:27:52;;;;;;;3.40;0.87;;;;;;;17.23;50.21;103207.75;10537565;28;20027;-57
2024/01/09 00:32:52;;;;;;;2.50;1.00;;;;;;;17.22;49.80;103200.75;10537492;28;20284;-57
2024/01/09 00:37:53;;;;;;;1.23;0.90;;;;;;;17.24;50.32;103208.56;10537181;28;20278;-57
2024/01/09 00:42:53;;;;;;;1.83;0.77;;;;;;;17.25;49.91;103202.16;10537397;28;20281;-57
2024/01/09 00:47:53;;;;;;;2.10;1.10;;;;;;;17.25;50.77;103196.78;10536640;28;20020;-55
2024/01/09 00:52:54;;;;;;;1.43;1.00;;;;;;;17.25;49.60;103189.56;10536645;28;20274;-56
2024/01/09 00:57:54;;;;;;;1.67;0.97;;;;;;;17.24;50.60;103197.84;10536196;28;20278;-57
2024/01/09 01:02:54;;;;;;;0.88;0.70;;;;;;;17.28;50.48;103193.66;10536402;28;20270;-57
2024/01/09 01:07:55;;;;;;;1.50;0.70;;;;;;;17.24;50.63;103195.97;10536096;28;20023;-57
2024/01/09 01:12:55;;;;;;;1.23;0.70;;;;;;;17.28;50.52;103195.53;10515734;28;20704;-57
2024/01/09 01:17:55;;;;;;;0.93;0.60;;;;;;;17.25;48.98;103194.94;10535505;28;20274;-57
2024/01/09 01:22:56;;;;;;;1.63;0.90;;;;;;;17.22;50.69;103195.38;10535891;28;20811;-57
2024/01/09 01:27:56;;;;;;;1.70;0.88;;;;;;;17.21;49.68;103188.41;10534962;28;20281;-55
2024/01/09 01:32:56;;;;;;;1.33;0.80;;;;;;;17.14;50.61;103194.88;10535380;28;20024;-57
2024/01/09 01:37:57;;;;;;;1.53;0.80;;;;;;;17.13;49.69;103194.06;10534679;28;20020;-55
2024/01/09 01:42:57;;;;;;;1.55;1.00;;;;;;;17.17;49.43;103191.75;10534833;28;20374;-57
2024/01/09 01:47:59;;;;;;;1.05;0.63;;;;;;;17.23;50.65;103199.72;10534366;28;20475;-56
2024/01/09 01:53:01;;;;;;;1.23;0.60;;;;;;;17.20;50.24;103192.13;10516300;28;20024;-57
2024/01/09 01:58:02;;;;;;;1.35;0.95;;;;;;;17.24;50.51;103195.97;10515793;28;20023;-57
2024/01/09 02:03:03;;;;;;;1.50;0.73;;;;;;;17.25;48.79;103178.84;10534222;28;20026;-56
2024/01/09 02:08:05;;;;;;;1.90;0.80;;;;;;;17.23;49.58;103185.50;10533299;28;20023;-57
2024/01/09 02:13:05;;;;;;;1.58;0.63;;;;;;;17.22;49.17;103173.13;10515434;28;20052;-55
2024/01/09 02:18:06;;;;;;;1.40;0.60;;;;;;;17.25;49.17;103178.84;10515419;28;20028;-56
2024/01/09 02:23:06;;;;;;;1.42;0.80;;;;;;;17.23;48.75;103167.53;10533702;28;20066;-56
2024/01/09 02:28:14;;;;;;;1.17;0.70;;;;;;;17.26;49.25;103174.31;10502852;28;20032;-56
2024/01/09 02:33:15;;;;;;;1.65;0.93;;;;;;;17.29;49.95;103162.31;10514904;28;20058;-57
2024/01/09 02:38:15;;;;;;;1.17;0.57;;;;;;;17.24;49.89;103169.16;10541190;28;20041;-56
2024/01/09 02:43:16;;;;;;;2.05;1.00;;;;;;;17.28;49.67;103169.53;10547267;28;20734;-56
2024/01/09 02:48:16;;;;;;;1.08;0.60;;;;;;;17.26;48.92;103168.94;10546786;28;20032;-55
2024/01/09 02:53:16;;;;;;;1.45;0.70;;;;;;;17.25;49.41;103170.81;10547069;28;20030;-57
2024/01/09 02:58:17;;;;;;;1.03;0.60;;;;;;;17.24;49.82;103168.34;10546415;28;20110;-56
2024/01/09 03:03:17;;;;;;;1.10;0.50;;;;;;;17.24;49.39;103160.31;10546863;28;20335;-57
2024/01/09 03:08:17;;;;;;;1.17;0.52;;;;;;;17.28;49.51;103166.84;10546101;28;20335;-57
2024/01/09 03:13:18;;;;;;;1.10;0.70;;;;;;;17.25;50.19;103167.31;10546376;28;20097;-56
2024/01/09 03:18:18;;;;;;;1.90;0.60;;;;;;;17.19;49.11;103170.91;10546132;28;20331;-56
2024/01/09 03:23:18;;;;;;;1.38;0.80;;;;;;;17.17;50.22;103164.97;10546741;28;20346;-56
2024/01/09 03:28:19;;;;;;;0.70;0.40;;;;;;;17.14;50.36;103171.56;10545950;28;20043;-56
2024/01/09 03:33:19;;;;;;;2.07;0.67;;;;;;;17.17;49.26;103173.81;10544386;28;20706;-56
2024/01/09 03:38:19;;;;;;;1.30;0.70;;;;;;;17.16;50.33;103168.66;10534029;28;20301;-56
2024/01/09 03:43:20;;;;;;;0.80;0.50;;;;;;;17.15;49.17;103159.78;10546190;28;20301;-57
2024/01/09 03:48:20;;;;;;;0.93;0.50;;;;;;;17.14;50.39;103155.47;10543457;28;20301;-57
2024/01/09 03:53:20;;;;;;;1.38;0.50;;;;;;;17.16;48.82;103158.75;10539387;28;20326;-55
2024/01/09 03:58:21;;;;;;;1.63;0.70;;;;;;;17.16;49.19;103149.88;10538656;28;20023;-56
2024/01/09 04:03:22;;;;;;;0.90;0.63;;;;;;;17.14;49.62;103158.16;10538777;28;20281;-56
2024/01/09 04:08:22;;;;;;;1.48;0.82;;;;;;;17.16;49.97;103152.56;10538474;28;20333;-56
2024/01/09 04:13:23;;;;;;;1.63;0.80;;;;;;;17.15;50.12;103149.06;10538511;28;20048;-55
2024/01/09 04:18:23;;;;;;;0.90;0.60;;;;;;;17.13;50.12;103145.81;10537866;28;20080;-57
2024/01/09 04:23:23;;;;;;;2.07;0.60;;;;;;;17.13;49.63;103137.75;10538106;28;20031;-57
2024/01/09 04:28:24;;;;;;;1.17;0.57;;;;;;;17.10;50.56;103142.75;10524100;28;20285;-55
2024/01/09 04:33:24;;;;;;;1.50;0.60;;;;;;;17.10;49.88;103143.59;10522613;28;20603;-53
2024/01/09 04:38:24;;;;;;;1.70;0.70;;;;;;;17.11;50.39;103141.72;10528257;28;20274;-55
2024/01/09 04:43:25;;;;;;;2.23;1.00;;;;;;;17.20;50.15;103132.31;10531562;28;20642;-56
2024/01/09 04:48:25;;;;;;;1.53;1.03;;;;;;;17.29;50.69;103140.88;10507956;28;20290;-58
2024/01/09 04:53:25;;;;;;;1.88;1.35;;;;;;;17.29;49.95;103144.38;10508324;28;20297;-57
2024/01/09 04:58:26;;;;;;;1.53;1.10;;;;;;;17.29;50.66;103146.25;10510046;28;20075;-57
2024/01/09 05:03:26;;;;;;;3.70;1.20;;;;;;;17.26;50.30;103147.50;10512085;28;20270;-56
2024/01/09 05:08:26;;;;;;;2.27;1.37;;;;;;;17.25;51.51;103146.66;10509904;28;20027;-57
2024/01/09 05:13:28;;;;;;;4.37;1.43;;;;;;;17.19;51.18;103155.63;10530086;28;20765;-57
2024/01/09 05:18:28;;;;;;;3.35;1.55;;;;;;;17.16;50.99;103145.34;10534774;28;20749;-57
2024/01/09 05:23:29;;;;;;;5.87;1.43;;;;;;;17.13;50.56;103158.38;10535802;28;20056;-57
2024/01/09 05:28:29;;;;;;;2.20;1.30;;;;;;;17.13;50.38;103150.34;10535069;28;20314;-57
2024/01/09 05:33:31;;;;;;;1.63;1.20;;;;;;;17.08;50.98;103156.41;10529467;28;20463;-57
2024/01/09 05:38:32;;;;;;;2.08;1.40;;;;;;;17.13;50.44;103156.53;10523185;28;20316;-57
2024/01/09 05:43:32;;;;;;;1.90;1.25;;;;;;;17.14;49.74;103163.53;10534290;28;20340;-58
2024/01/09 05:48:33;;;;;;;2.08;1.30;;;;;;;17.13;49.79;103163.75;10534563;28;20444;-57
2024/01/09 05:53:33;;;;;;;1.50;1.07;;;;;;;17.14;49.41;103160.03;10534926;28;20447;-57
2024/01/09 05:58:33;;;;;;;0.77;0.70;;;;;;;17.12;51.03;103162.13;10533922;28;20277;-55
2024/01/09 06:03:34;;;;;;;2.70;0.98;;;;;;;17.14;49.14;103160.03;10533964;28;20648;-56
2024/01/09 06:08:34;;;;;;;1.98;0.80;;;;;;;17.15;49.18;103170.53;10510647;28;20415;-56
2024/01/09 06:13:35;;;;;;;2.87;0.80;;;;;;;17.16;51.11;103174.00;10517804;28;20399;-57
2024/01/09 06:18:35;;;;;;;3.20;1.00;;;;;;;17.14;51.35;103176.94;10533021;28;20273;-55
2024/01/09 06:23:35;;;;;;;7.85;1.48;;;;;;;17.23;50.33;103188.16;10533957;28;20301;-57
2024/01/09 06:28:36;;;;;;;4.10;1.02;;;;;;;17.13;50.78;103190.56;10532898;28;20107;-55
2024/01/09 06:33:36;;;;;;;14.07;1.67;;;;;;;17.19;50.86;103190.50;10533322;28;20042;-56
2024/01/09 06:38:36;;;;;;;6.33;1.27;;;;;;;17.16;48.94;103193.59;10532856;28;20035;-56
2024/01/09 06:43:37;;;;;;;6.82;1.65;;;;;;;17.10;48.70;103199.06;10533256;28;20346;-56
2024/01/09 06:48:37;;;;;;;10.15;1.67;;;;;;;17.12;48.40;103202.31;10532871;28;20027;-56
2024/01/09 06:53:37;;;;;;;16.77;2.63;;;;;;;17.10;47.68;103207.91;10532563;28;20107;-56
2024/01/09 06:58:38;;;;;;;8.50;2.47;;;;;;;17.07;46.25;103197.66;10531605;28;20670;-56
2024/01/09 07:03:38;;;;;;;4.77;1.93;;;;;;;17.08;47.69;103201.97;10513728;28;20293;-54
2024/01/09 07:08:38;;;;;;;10.63;2.77;;;;;;;17.10;45.58;103204.41;10527198;28;20286;-57
2024/01/09 07:13:39;;;;;;;10.17;2.90;;;;;;;17.01;48.18;103214.63;10531091;28;20894;-55
2024/01/09 07:18:39;;;;;;;10.40;2.40;;;;;;;17.11;45.59;103209.56;10532830;28;20262;-56
2024/01/09 07:23:39;;;;;;;7.10;1.93;;;;;;;17.13;45.86;103215.50;10535170;28;20031;-54
2024/01/09 07:28:41;;;;;;;6.87;1.70;;;;;;;17.13;47.35;103212.81;10536906;28;20648;-56
2024/01/09 07:33:41;;;;;;;8.27;2.47;;;;;;;17.12;47.37;103207.69;10538899;28;20274;-56
2024/01/09 07:38:42;;;;;;;6.20;1.80;;;;;;;17.13;47.27;103210.16;10539877;28;20028;-56
2024/01/09 07:43:43;;;;;;;7.53;1.90;;;;;;;17.04;46.59;103216.03;10521399;28;20270;-55
2024/01/09 07:48:43;;;;;;;7.95;1.60;;;;;;;16.94;47.40;103221.94;10538927;28;20300;-55
2024/01/09 07:53:43;;;;;;;8.57;1.88;;;;;;;17.00;47.21;103226.38;10530517;28;20038;-55
2024/01/09 07:58:44;;;;;;;5.33;1.73;;;;;;;17.03;47.24;103233.16;10538940;28;20020;-58
2024/01/09 08:03:45;;;;;;;5.57;1.80;;;;;;;17.04;47.60;103224.88;10538729;28;20285;-56
2024/01/09 08:08:45;;;;;;;4.75;1.55;;;;;;;17.07;46.24;103231.69;10540762;28;20103;-57
2024/01/09 08:13:47;;;;;;;4.13;1.60;;;;;;;17.03;46.77;103231.28;10518828;28;20074;-57
2024/01/09 08:18:47;;;;;;;3.08;1.38;;;;;;;17.04;47.86;103240.97;10538484;28;20289;-56
2024/01/09 08:23:48;;;;;;;3.70;1.60;;;;;;;17.04;47.54;103240.97;10537445;28;20028;-56
2024/01/09 08:28:48;;;;;;;3.53;1.33;;;;;;;17.04;46.49;103248.19;10532478;28;20286;-56
2024/01/09 08:33:48;;;;;;;4.90;1.60;;;;;;;17.02;47.56;103247.59;10525929;28;20270;-53
2024/01/09 08:38:49;;;;;;;5.22;1.67;;;;;;;17.05;47.17;103256.03;10537457;28;20330;-55
2024/01/09 08:43:49;;;;;;;3.43;1.07;;;;;;;16.99;46.64;103256.91;10536653;28;20020;-54
2024/01/09 08:48:49;;;;;;;2.00;1.20;;;;;;;17.03;46.32;103254.59;10536867;28;20799;-54
2024/01/09 08:53:53;;;;;;;2.85;1.52;;;;;;;16.97;47.65;103255.50;10541652;28;20289;-56
2024/01/09 08:58:53;;;;;;;3.00;1.40;;;;;;;17.01;47.63;103248.66;10536419;28;20030;-53
2024/01/09 09:03:54;;;;;;;4.87;1.40;;;;;;;17.00;47.00;103263.09;10535544;28;20028;-57
2024/01/09 09:08:54;;;;;;;2.67;1.00;;;;;;;16.93;48.19;103258.63;10528642;28;20766;-57
2024/01/09 09:13:54;;;;;;;3.10;1.80;;;;;;;16.86;47.79;103257.06;10522905;28;20298;-55
2024/01/09 09:18:55;;;;;;;3.80;1.10;;;;;;;16.83;48.77;103268.22;10535826;28;20486;-55
2024/01/09 09:23:56;;;;;;;1.85;0.80;;;;;;;16.79;48.07;103259.78;10535153;28;20266;-56
2024/01/09 09:28:56;;;;;;;2.37;1.17;;;;;;;16.76;48.47;103265.59;10535180;28;20580;-56
2024/01/09 09:33:56;;;;;;;2.93;1.10;;;;;;;16.76;47.91;103276.31;10534930;28;20289;-55
2024/01/09 09:38:57;;;;;;;4.57;1.40;;;;;;;16.80;48.88;103258.75;10517013;28;20273;-56
2024/01/09 09:43:58;;;;;;;2.97;1.23;;;;;;;16.80;49.25;103271.31;10534449;28;20024;-55
2024/01/09 09:48:59;;;;;;;2.60;1.10;;;;;;;16.80;50.65;103263.28;10534345;28;20286;-57
2024/01/09 09:54:01;;;;;;;2.75;1.25;;;;;;;16.82;49.39;103266.59;10533977;28;20028;-57
2024/01/09 09:59:02;;;;;;;2.70;1.20;;;;;;;16.88;48.72;103260.31;10533729;28;20082;-56
2024/01/09 10:04:12;;;;;;;3.35;1.25;;;;;;;16.92;49.53;103256.97;10533741;28;20097;-55
2024/01/09 10:09:14;;;;;;;4.45;1.13;;;;;;;16.91;50.02;103257.19;10509479;28;20492;-53
2024/01/09 10:14:14;;;;;;;2.78;1.08;;;;;;;16.91;50.28;103255.34;10523518;28;20097;-56
2024/01/09 10:19:15;;;;;;;2.83;1.20;;;;;;;16.89;49.76;103252.06;10533838;28;20065;-55
2024/01/09 10:24:16;;;;;;;3.30;1.67;;;;;;;16.91;48.85;103254.50;10532871;28;20758;-56
2024/01/09 10:29:16;;;;;;;2.90;1.27;;;;;;;16.89;50.11;103235.97;10533098;28;20415;-55
2024/01/09 10:34:16;;;;;;;1.85;1.00;;;;;;;16.79;50.81;103235.66;10533195;28;20081;-56
2024/01/09 10:39:17;;;;;;;3.43;1.17;;;;;;;16.69;49.62;103230.00;10533235;28;20030;-53
2024/01/09 10:44:19;;;;;;;2.30;1.23;;;;;;;16.65;49.80;103221.56;10532825;28;20300;-53
2024/01/09 10:49:20;;;;;;;2.55;1.30;;;;;;;16.63;50.89;103218.28;10533051;28;20030;-56
2024/01/09 10:54:20;;;;;;;2.65;1.30;;;;;;;16.61;50.68;103214.19;10532529;28;20034;-56
2024/01/09 10:59:22;;;;;;;2.92;1.00;;;;;;;16.58;50.05;103210.09;10537478;28;20031;-56
2024/01/09 11:04:22;;;;;;;2.05;1.00;;;;;;;16.59;49.68;103211.75;10540600;28;20024;-56
2024/01/09 11:09:24;;;;;;;1.87;1.13;;;;;;;16.58;50.12;103212.78;10528170;28;20380;-56
2024/01/09 11:14:25;;;;;;;1.63;0.80;;;;;;;16.58;51.32;103195.91;10514838;28;20286;-55
2024/01/09 11:19:26;;;;;;;2.70;1.50;;;;;;;16.61;51.40;103187.41;10532959;28;20402;-56
2024/01/09 11:24:27;;;;;;;2.75;1.48;;;;;;;16.59;50.01;103182.28;10510722;28;20099;-52
2024/01/09 11:29:50;;;;;;;2.97;1.17;;;;;;;16.60;50.25;103169.72;10509069;28;20139;-56
2024/01/09 11:35:12;;;;;;;2.65;1.10;;;;;;;16.60;49.57;103172.38;10517726;28;20024;-55
2024/01/09 11:40:14;;;;;;;1.85;0.70;;;;;;;16.62;50.99;103168.44;10517560;28;20103;-55
2024/01/09 11:45:22;;;;;;;2.90;1.13;;;;;;;16.64;49.50;103162.84;10513184;28;20573;-56
2024/01/09 11:50:23;;;;;;;2.30;1.23;;;;;;;16.65;50.56;103170.66;10517477;28;20032;-56
2024/01/09 11:55:23;;;;;;;2.03;0.93;;;;;;;16.63;50.19;103156.69;10516634;28;20424;-56
2024/01/09 12:00:24;;;;;;;2.07;1.13;;;;;;;16.58;51.14;103150.38;10523008;28;20028;-55
2024/01/09 12:05:24;;;;;;;1.73;0.90;;;;;;;16.49;50.78;103149.84;10538386;28;20794;-54
2024/01/09 12:10:24;;;;;;;2.43;0.97;;;;;;;16.45;51.28;103148.63;10536902;28;20471;-56
2024/01/09 12:15:26;;;;;;;1.13;0.70;;;;;;;16.38;50.08;103134.50;10538182;28;20294;-54
2024/01/09 12:20:27;;;;;;;3.33;1.20;;;;;;;16.36;51.47;103133.91;10536893;28;20844;-57
2024/01/09 12:25:27;;;;;;;3.15;1.60;;;;;;;16.32;51.67;103130.00;10537640;28;20023;-56
2024/01/09 12:30:30;;;;;;;3.15;1.60;;;;;;;16.27;50.34;103122.66;10537718;28;20378;-54
2024/01/09 12:35:30;;;;;;;3.88;1.10;;;;;;;16.17;50.64;103108.94;10537210;28;20095;-55
2024/01/09 12:40:31;;;;;;;2.35;1.50;;;;;;;16.09;51.00;103112.72;10518273;28;20111;-56
2024/01/09 12:45:31;;;;;;;3.03;1.15;;;;;;;16.02;51.71;103101.28;10536780;28;20447;-56
2024/01/09 12:50:31;;;;;;;2.27;0.90;;;;;;;15.96;51.08;103099.47;10536874;28;20028;-56
2024/01/09 12:55:32;;;;;;;2.87;1.27;;;;;;;15.91;51.91;103088.63;10536473;28;20270;-54
2024/01/09 13:00:33;;;;;;;3.55;1.80;;;;;;;15.92;51.61;103079.53;10536749;28;20688;-55
2024/01/09 13:05:33;;;;;;;2.42;1.02;;;;;;;15.97;51.02;103068.16;10535864;28;20020;-56
2024/01/09 13:10:33;;;;;;;2.45;1.10;;;;;;;16.03;51.04;103075.34;10536067;28;20047;-56
2024/01/09 13:15:34;;;;;;;2.17;1.00;;;;;;;16.12;50.55;103075.88;10535539;28;20048;-57
2024/01/09 13:20:34;;;;;;;2.07;1.00;;;;;;;16.19;51.04;103079.28;10526359;28;20978;-57
2024/01/09 13:25:34;;;;;;;3.42;1.23;;;;;;;16.24;50.77;103064.22;10528260;28;20339;-56
2024/01/09 13:30:35;;;;;;;8.33;1.60;;;;;;;16.28;49.68;103052.00;10539274;28;20039;-57
2024/01/09 13:35:36;;;;;;;7.15;1.10;;;;;;;16.36;50.01;103056.25;10535038;28;20277;-53
2024/01/09 13:40:37;;;;;;;7.07;1.33;;;;;;;16.40;50.45;103064.66;10535051;28;20018;-57
2024/01/09 13:45:37;;;;;;;9.73;1.70;;;;;;;16.38;51.12;103070.22;10521132;28;20490;-56
2024/01/09 13:50:38;;;;;;;6.93;1.30;;;;;;;16.39;51.89;103066.50;10537171;28;20298;-55
2024/01/09 13:55:38;;;;;;;6.38;1.52;;;;;;;16.40;50.86;103072.69;10531642;28;20312;-56
2024/01/09 14:00:39;;;;;;;5.73;1.53;;;;;;;16.34;52.71;103063.69;10534637;28;20028;-56
2024/01/09 14:05:39;;;;;;;5.53;1.30;;;;;;;16.38;51.23;103070.22;10533431;28;20272;-57
2024/01/09 14:10:39;;;;;;;7.45;1.67;;;;;;;16.36;52.86;103069.66;10531146;28;20032;-56
2024/01/09 14:15:40;;;;;;;11.82;1.75;;;;;;;16.43;52.39;103065.00;10532611;28;20368;-57
2024/01/09 14:20:40;;;;;;;12.68;1.67;;;;;;;16.48;51.75;103062.50;10533659;28;20023;-55
2024/01/09 14:25:43;;;;;;;13.38;2.35;;;;;;;16.53;52.07;103069.84;10533129;28;20421;-56
2024/01/09 14:30:45;;;;;;;10.05;2.13;;;;;;;16.67;51.57;103050.75;10533317;28;20433;-57
2024/01/09 14:35:46;;;;;;;10.18;2.97;;;;;;;16.85;52.78;103057.13;10532339;28;20111;-58
2024/01/09 14:40:46;;;;;;;10.67;1.77;;;;;;;16.99;54.56;103053.22;10533269;28;20034;-58
2024/01/09 14:45:46;;;;;;;9.83;1.90;;;;;;;17.03;54.73;103045.53;10529904;28;20285;-58
2024/01/09 14:50:47;;;;;;;9.33;2.00;;;;;;;17.11;55.85;103051.41;10509968;28;20710;-57
2024/01/09 14:55:47;;;;;;;7.90;2.03;;;;;;;17.16;57.07;103054.19;10513434;28;20312;-56
2024/01/09 15:00:48;;;;;;;8.93;2.97;;;;;;;17.18;57.12;103054.81;10502927;28;20618;-56
2024/01/09 15:05:49;;;;;;;6.20;2.55;;;;;;;17.29;58.73;103060.44;10532463;28;20028;-55
2024/01/09 15:10:49;;;;;;;11.77;3.53;;;;;;;17.23;58.61;103049.56;10516715;28;20028;-54
2024/01/09 15:15:49;;;;;;;12.52;2.95;;;;;;;17.20;58.05;103047.34;10507906;28;20032;-56
2024/01/09 15:20:50;;;;;;;21.57;9.10;;;;;;;17.19;57.80;103048.41;10504195;28;20040;-56
2024/01/09 15:25:50;;;;;;;24.30;9.47;;;;;;;17.49;56.99;103048.31;10487995;28;20267;-54
2024/01/09 15:30:51;;;;;;;18.03;5.33;;;;;;;17.57;54.88;103047.19;10513316;28;20335;-56
2024/01/09 15:35:52;;;;;;;11.98;3.90;;;;;;;17.37;52.61;103042.13;10523826;28;20304;-56
2024/01/09 15:40:53;;;;;;;13.93;3.72;;;;;;;17.36;54.12;103037.00;10529981;28;20024;-55
2024/01/09 15:45:54;;;;;;;14.38;5.90;;;;;;;17.35;54.76;103038.88;10536028;28;20106;-54
2024/01/09 15:50:55;;;;;;;24.10;5.30;;;;;;;17.32;51.49;103054.59;10516436;28;20035;-55
2024/01/09 15:55:55;;;;;;;10.32;4.47;;;;;;;17.41;51.89;103051.38;10512466;28;20108;-55
2024/01/09 16:00:56;;;;;;;17.27;3.63;;;;;;;17.38;52.46;103053.66;10499830;28;20027;-56
2024/01/09 16:05:56;;;;;;;11.68;3.78;;;;;;;17.28;51.93;103067.63;10521233;28;20301;-52
2024/01/09 16:10:56;;;;;;;10.60;2.80;;;;;;;17.28;52.08;103061.44;10496716;28;20131;-54
2024/01/09 16:16:03;;;;;;;17.37;3.10;;;;;;;17.23;51.50;103054.94;10495021;28;20402;-54
2024/01/09 16:21:05;;;;;;;6.00;2.65;;;;;;;17.18;52.28;103045.94;10520380;28;20282;-54
2024/01/09 16:26:08;;;;;;;8.55;3.00;;;;;;;17.14;51.89;103040.22;10516459;28;20020;-54
2024/01/09 16:31:10;;;;;;;5.22;3.30;;;;;;;17.15;51.06;103043.69;10537883;28;20467;-55
2024/01/09 16:36:12;;;;;;;8.93;3.13;;;;;;;17.13;52.01;103051.97;10537541;28;20047;-55
2024/01/09 16:41:13;;;;;;;5.72;2.63;;;;;;;17.11;51.40;103051.41;10537753;28;20013;-55
2024/01/09 16:46:13;;;;;;;5.87;2.50;;;;;;;17.08;51.52;103049.19;10537100;28;20020;-54
2024/01/09 16:51:16;;;;;;;11.67;2.80;;;;;;;17.06;50.69;103061.19;10537042;28;20290;-55
2024/01/09 16:56:20;;;;;;;4.88;2.00;;;;;;;17.03;51.18;103059.75;10535817;28;20274;-55
2024/01/09 17:01:23;;;;;;;5.18;2.28;;;;;;;17.00;51.50;103056.72;10535147;28;20039;-55
2024/01/09 17:06:24;;;;;;;5.45;1.80;;;;;;;16.97;52.27;103060.66;10532458;28;20029;-55
2024/01/09 17:11:25;;;;;;;4.47;1.77;;;;;;;16.93;51.25;103062.19;10512570;28;20020;-55
2024/01/09 17:16:25;;;;;;;7.65;2.50;;;;;;;16.90;51.47;103063.44;10468126;28;20025;-56
2024/01/09 17:21:26;;;;;;;7.17;1.80;;;;;;;16.91;51.49;103057.03;10465690;28;20036;-54
2024/01/09 17:26:27;;;;;;;3.50;2.08;;;;;;;16.92;51.22;103063.19;10451668;28;20312;-57
2024/01/09 17:31:27;;;;;;;8.97;2.20;;;;;;;16.97;52.74;103057.19;10464479;28;20028;-57
2024/01/09 17:36:27;;;;;;;6.37;2.43;;;;;;;17.03;55.17;103049.03;10493015;28;20278;-55
2024/01/09 17:41:28;;;;;;;5.87;1.97;;;;;;;17.03;54.34;103049.03;10492746;28;20278;-55
2024/01/09 17:46:28;;;;;;;7.23;1.60;;;;;;;16.99;54.52;103055.91;10475112;28;20332;-55
2024/01/09 17:51:28;;;;;;;7.82;3.50;;;;;;;17.00;55.10;103054.03;10492212;28;20819;-57
2024/01/09 17:56:35;;;;;;;6.25;1.85;;;;;;;16.94;53.58;103055.78;10492636;28;20737;-55
2024/01/09 18:01:41;;;;;;;12.18;2.25;;;;;;;17.01;54.12;103055.66;10491981;28;20016;-55
2024/01/09 18:06:44;;;;;;;4.72;1.70;;;;;;;17.05;54.38;103048.78;10492435;28;20024;-53
2024/01/09 18:11:44;;;;;;;12.57;2.78;;;;;;;17.06;53.90;103055.81;10474584;28;20048;-54
2024/01/09 18:16:46;;;;;;;8.20;1.60;;;;;;;16.94;52.39;103056.59;10512779;28;20036;-54
2024/01/09 18:21:46;;;;;;;6.82;2.53;;;;;;;16.89;51.86;103058.31;10522897;28;20740;-55
2024/01/09 18:26:46;;;;;;;4.78;1.50;;;;;;;16.85;51.39;103057.94;10525354;28;20028;-54
2024/01/09 18:31:50;;;;;;;7.50;1.40;;;;;;;16.86;51.97;103064.13;10508525;28;20120;-54
2024/01/09 18:36:50;;;;;;;4.93;1.23;;;;;;;16.90;52.48;103073.34;10516300;28;20313;-55
2024/01/09 18:41:56;;;;;;;8.10;1.50;;;;;;;16.95;51.41;103063.59;10505082;28;20099;-54
2024/01/09 18:46:57;;;;;;;6.22;1.80;;;;;;;16.99;52.91;103060.44;10525384;28;20035;-53
2024/01/09 18:51:57;;;;;;;6.32;2.05;;;;;;;16.88;52.51;103068.19;10532759;28;20043;-53
2024/01/09 18:56:57;;;;;;;7.80;2.00;;;;;;;16.87;52.26;103066.56;10532882;28;20038;-56
2024/01/09 19:01:58;;;;;;;8.82;1.73;;;;;;;16.81;52.23;103061.28;10532406;28;20887;-55
2024/01/09 19:06:59;;;;;;;7.05;2.05;;;;;;;16.78;51.04;103056.38;10532646;28;20024;-53
2024/01/09 19:11:59;;;;;;;4.65;1.33;;;;;;;16.74;51.67;103049.84;10525827;28;20043;-55
2024/01/09 19:16:59;;;;;;;6.35;2.05;;;;;;;16.75;51.04;103046.13;10518797;28;20067;-55
2024/01/09 19:22:00;;;;;;;7.97;1.93;;;;;;;16.75;50.58;103052.31;10539451;28;20031;-55
2024/01/09 19:27:00;;;;;;;5.73;1.60;;;;;;;16.80;50.81;103046.25;10493187;28;20298;-55
2024/01/09 19:32:01;;;;;;;8.35;2.35;;;;;;;16.84;51.36;103048.28;10517529;28;20293;-55
2024/01/09 19:37:01;;;;;;;7.05;1.88;;;;;;;16.87;51.46;103052.34;10518169;28;20062;-55
2024/01/09 19:42:02;;;;;;;6.97;2.00;;;;;;;16.86;51.15;103048.84;10508953;28;20103;-56
2024/01/09 19:47:03;;;;;;;4.10;1.52;;;;;;;16.88;51.55;103054.81;10510941;28;20289;-56
2024/01/09 19:52:06;;;;;;;4.50;1.60;;;;;;;16.91;51.43;103046.31;10531546;28;20016;-56
2024/01/09 19:57:06;;;;;;;5.88;1.50;;;;;;;16.92;51.38;103060.53;10520638;28;20028;-56
2024/01/09 20:02:07;;;;;;;5.40;1.03;;;;;;;16.95;50.17;103058.22;10526265;28;20137;-56
2024/01/09 20:07:07;;;;;;;4.80;1.50;;;;;;;16.99;50.82;103061.25;10518824;28;20279;-56
2024/01/09 20:12:07;;;;;;;4.35;1.60;;;;;;;17.05;49.41;103067.56;10505717;28;20295;-56
2024/01/09 20:17:09;;;;;;;4.40;1.45;;;;;;;17.02;50.26;103054.63;10507968;28;20550;-56
2024/01/09 20:22:13;;;;;;;3.60;1.42;;;;;;;17.01;50.60;103045.75;10515612;28;20103;-52
2024/01/09 20:27:14;;;;;;;4.43;1.08;;;;;;;17.01;50.85;103042.25;10501416;28;20536;-56
2024/01/09 20:32:14;;;;;;;3.60;1.45;;;;;;;17.03;49.67;103056.25;10507804;28;20162;-56
2024/01/09 20:37:15;;;;;;;2.17;1.08;;;;;;;17.02;49.37;103041.22;10533052;28;20027;-56
2024/01/09 20:42:16;;;;;;;2.63;1.15;;;;;;;16.98;50.21;103037.38;10533896;28;20036;-57
2024/01/09 20:47:16;;;;;;;2.70;1.50;;;;;;;17.02;49.45;103035.84;10537229;28;20378;-56
2024/01/09 20:52:16;;;;;;;2.88;1.73;;;;;;;17.01;48.95;103020.81;10525843;28;20502;-55
2024/01/09 20:57:18;;;;;;;4.95;1.30;;;;;;;17.03;49.46;103016.88;10528495;28;20486;-55
2024/01/09 21:02:19;;;;;;;3.30;1.52;;;;;;;17.05;49.11;103014.78;10536382;28;20138;-57
2024/01/09 21:07:19;;;;;;;1.60;1.05;;;;;;;17.04;49.35;103002.41;10536330;28;20016;-57
2024/01/09 21:12:22;;;;;;;3.80;1.43;;;;;;;17.05;50.37;103005.91;10535938;28;20036;-57
2024/01/09 21:17:22;;;;;;;2.97;1.20;;;;;;;17.06;49.67;102997.66;10536363;28;20274;-57
2024/01/09 21:22:22;;;;;;;3.13;1.43;;;;;;;17.10;49.40;102998.84;10535429;28;20379;-57
2024/01/09 21:27:22;;;;;;;2.43;1.30;;;;;;;17.06;49.73;103005.72;10535605;28;20281;-57
2024/01/09 21:32:23;;;;;;;1.73;1.00;;;;;;;17.08;49.86;103008.16;10535245;28;20304;-56
2024/01/09 21:37:23;;;;;;;3.27;1.90;;;;;;;17.12;49.47;103001.28;10535442;28;20280;-57
2024/01/09 21:42:23;;;;;;;2.08;1.15;;;;;;;17.16;50.13;103010.47;10534475;28;20294;-55
2024/01/09 21:47:24;;;;;;;2.60;1.10;;;;;;;17.14;50.36;103004.53;10535180;28;20503;-57
2024/01/09 21:52:24;;;;;;;2.20;1.05;;;;;;;17.15;48.82;102998.13;10534436;28;20028;-57
2024/01/09 21:57:24;;;;;;;1.50;0.93;;;;;;;17.16;49.19;103003.25;10533586;28;20032;-56
2024/01/09 22:02:25;;;;;;;1.50;0.80;;;;;;;17.20;48.79;102992.91;10533216;28;20289;-56
2024/01/09 22:07:25;;;;;;;2.55;1.08;;;;;;;17.18;49.74;102982.41;10533192;28;20960;-56
2024/01/09 22:12:25;;;;;;;3.03;0.90;;;;;;;17.14;50.08;102985.78;10530581;28;20555;-56
2024/01/09 22:17:26;;;;;;;1.57;0.80;;;;;;;17.15;49.05;102982.03;10531176;28;20130;-54
2024/01/09 22:22:26;;;;;;;2.65;1.13;;;;;;;17.15;49.85;102974.81;10530325;28;20352;-56
2024/01/09 22:27:26;;;;;;;3.47;1.47;;;;;;;17.16;49.57;102989.03;10531063;28;20032;-56
2024/01/09 22:32:27;;;;;;;1.73;1.03;;;;;;;17.13;48.55;102974.25;10530111;28;20286;-56
2024/01/09 22:37:27;;;;;;;2.72;1.33;;;;;;;17.16;48.73;102976.44;10530304;28;20784;-56
2024/01/09 22:42:27;;;;;;;1.98;0.90;;;;;;;17.15;49.21;102974.00;10529968;28;20022;-56
2024/01/09 22:47:28;;;;;;;1.73;1.00;;;;;;;17.14;49.75;102975.88;10520297;28;20040;-56
2024/01/09 22:52:28;;;;;;;2.30;1.13;;;;;;;17.17;48.48;102988.84;10529524;28;20815;-56
2024/01/09 22:57:28;;;;;;;1.77;0.93;;;;;;;17.15;48.71;102982.03;10538674;28;20281;-55
2024/01/09 23:02:29;;;;;;;1.40;0.80;;;;;;;17.12;49.52;102977.97;10540556;28;20266;-57